sensor_id;sensor_type;location;lat;lon;timestamp;temperature;humidity
6291;DHT22;3178;48.730;8.990;2023-04-23T00:00:40;12.80;99.90
6291;DHT22;3178;48.730;8.990;2023-04-23T00:03:07;12.90;99.90
6291;DHT22;3178;48.730;8.990;2023-04-23T00:05:35;12.90;99.90
6291;DHT22;3178;48.730;8.990;2023-04-23T00:08:02;12.80;99.90
6291;DHT22;3178;48.730;8.990;2023-04-23T00:10:28;12.80;99.90
6291;DHT22;3178;48.730;8.990;2023-04-23T00:12:53;12.90;99.90
6291;DHT22;3178;48.730;8.990;2023-04-23T00:15:19;12.80;99.90
6291;DHT22;3178;48.730;8.990;2023-04-23T00:17:46;12.90;99.90
6291;DHT22;3178;48.730;8.990;2023-04-23T00:20:12;12.90;99.90
6291;DHT22;3178;48.730;8.990;2023-04-23T00:22:38;12.90;99.90
6291;DHT22;3178;48.730;8.990;2023-04-23T00:25:04;12.90;99.90
6291;DHT22;3178;48.730;8.990;2023-04-23T00:27:29;12.90;99.90
6291;DHT22;3178;48.730;8.990;2023-04-23T00:29:55;12.90;99.90
6291;DHT22;3178;48.730;8.990;2023-04-23T00:32:20;12.80;99.90
6291;DHT22;3178;48.730;8.990;2023-04-23T00:34:47;12.80;99.90
6291;DHT22;3178;48.730;8.990;2023-04-23T00:37:16;12.80;99.90
6291;DHT22;3178;48.730;8.990;2023-04-23T00:39:42;12.80;99.90
6291;DHT22;3178;48.730;8.990;2023-04-23T00:42:08;12.80;99.90
6291;DHT22;3178;48.730;8.990;2023-04-23T00:44:38;12.80;99.90
6291;DHT22;3178;48.730;8.990;2023-04-23T00:47:05;12.80;99.90
6291;DHT22;3178;48.730;8.990;2023-04-23T00:49:35;12.80;99.90
6291;DHT22;3178;48.730;8.990;2023-04-23T00:52:01;12.80;99.90
6291;DHT22;3178;48.730;8.990;2023-04-23T00:54:27;12.80;99.90
6291;DHT22;3178;48.730;8.990;2023-04-23T00:56:54;12.80;99.90
6291;DHT22;3178;48.730;8.990;2023-04-23T00:59:20;12.80;99.90
6291;DHT22;3178;48.730;8.990;2023-04-23T01:01:46;12.80;99.90
6291;DHT22;3178;48.730;8.990;2023-04-23T01:04:13;12.90;99.90
6291;DHT22;3178;48.730;8.990;2023-04-23T01:06:40;12.90;99.90
6291;DHT22;3178;48.730;8.990;2023-04-23T01:09:07;12.90;99.90
6291;DHT22;3178;48.730;8.990;2023-04-23T01:11:36;12.80;99.90
6291;DHT22;3178;48.730;8.990;2023-04-23T01:14:03;12.80;99.90
6291;DHT22;3178;48.730;8.990;2023-04-23T01:16:28;12.80;99.90
6291;DHT22;3178;48.730;8.990;2023-04-23T01:18:55;12.80;99.90
6291;DHT22;3178;48.730;8.990;2023-04-23T01:21:21;12.80;99.90
6291;DHT22;3178;48.730;8.990;2023-04-23T01:23:48;12.80;99.90
6291;DHT22;3178;48.730;8.990;2023-04-23T01:26:14;12.80;99.90
6291;DHT22;3178;48.730;8.990;2023-04-23T01:28:41;12.80;99.90
6291;DHT22;3178;48.730;8.990;2023-04-23T01:31:07;12.80;99.90
6291;DHT22;3178;48.730;8.990;2023-04-23T01:33:33;12.70;99.90
6291;DHT22;3178;48.730;8.990;2023-04-23T01:35:59;12.70;99.90
6291;DHT22;3178;48.730;8.990;2023-04-23T01:38:27;12.70;99.90
6291;DHT22;3178;48.730;8.990;2023-04-23T01:40:55;12.70;99.90
6291;DHT22;3178;48.730;8.990;2023-04-23T01:43:21;12.70;99.90
6291;DHT22;3178;48.730;8.990;2023-04-23T01:45:47;12.60;99.90
6291;DHT22;3178;48.730;8.990;2023-04-23T01:48:13;12.60;99.90
6291;DHT22;3178;48.730;8.990;2023-04-23T01:50:39;12.60;99.90
6291;DHT22;3178;48.730;8.990;2023-04-23T01:53:05;12.60;99.90
6291;DHT22;3178;48.730;8.990;2023-04-23T01:55:33;12.60;99.90
6291;DHT22;3178;48.730;8.990;2023-04-23T01:57:58;12.60;99.90
6291;DHT22;3178;48.730;8.990;2023-04-23T02:00:24;12.50;99.90
6291;DHT22;3178;48.730;8.990;2023-04-23T02:02:49;12.50;99.90
6291;DHT22;3178;48.730;8.990;2023-04-23T02:05:18;12.50;99.90
6291;DHT22;3178;48.730;8.990;2023-04-23T02:07:46;12.50;99.90
6291;DHT22;3178;48.730;8.990;2023-04-23T02:10:12;12.50;99.90
6291;DHT22;3178;48.730;8.990;2023-04-23T02:12:38;12.50;99.90
6291;DHT22;3178;48.730;8.990;2023-04-23T02:15:05;12.40;99.90
6291;DHT22;3178;48.730;8.990;2023-04-23T02:17:31;12.30;99.90
6291;DHT22;3178;48.730;8.990;2023-04-23T02:19:57;12.20;99.90
6291;DHT22;3178;48.730;8.990;2023-04-23T02:22:22;12.20;99.90
6291;DHT22;3178;48.730;8.990;2023-04-23T02:24:50;12.20;99.90
6291;DHT22;3178;48.730;8.990;2023-04-23T02:27:16;12.20;99.90
6291;DHT22;3178;48.730;8.990;2023-04-23T02:29:41;12.20;99.90
6291;DHT22;3178;48.730;8.990;2023-04-23T02:32:07;12.20;99.90
6291;DHT22;3178;48.730;8.990;2023-04-23T02:34:33;12.20;99.90
6291;DHT22;3178;48.730;8.990;2023-04-23T02:36:58;12.20;99.90
6291;DHT22;3178;48.730;8.990;2023-04-23T02:39:24;12.20;99.90
6291;DHT22;3178;48.730;8.990;2023-04-23T02:41:50;12.20;99.90
6291;DHT22;3178;48.730;8.990;2023-04-23T02:44:15;12.20;99.90
6291;DHT22;3178;48.730;8.990;2023-04-23T02:46:41;12.10;99.90
6291;DHT22;3178;48.730;8.990;2023-04-23T02:49:06;12.10;99.90
6291;DHT22;3178;48.730;8.990;2023-04-23T02:51:32;12.20;99.90
6291;DHT22;3178;48.730;8.990;2023-04-23T02:53:58;12.20;99.90
6291;DHT22;3178;48.730;8.990;2023-04-23T02:56:23;12.20;99.90
6291;DHT22;3178;48.730;8.990;2023-04-23T02:58:49;12.20;99.90
6291;DHT22;3178;48.730;8.990;2023-04-23T03:01:15;12.10;99.90
6291;DHT22;3178;48.730;8.990;2023-04-23T03:03:41;12.10;99.90
6291;DHT22;3178;48.730;8.990;2023-04-23T03:06:06;12.10;99.90
6291;DHT22;3178;48.730;8.990;2023-04-23T03:08:32;12.10;99.90
6291;DHT22;3178;48.730;8.990;2023-04-23T03:10:58;12.10;99.90
6291;DHT22;3178;48.730;8.990;2023-04-23T03:13:24;12.10;99.90
6291;DHT22;3178;48.730;8.990;2023-04-23T03:15:51;12.00;99.90
6291;DHT22;3178;48.730;8.990;2023-04-23T03:18:17;12.00;99.90
6291;DHT22;3178;48.730;8.990;2023-04-23T03:20:43;12.00;99.90
6291;DHT22;3178;48.730;8.990;2023-04-23T03:23:08;12.00;99.90
6291;DHT22;3178;48.730;8.990;2023-04-23T03:25:34;12.00;99.90
6291;DHT22;3178;48.730;8.990;2023-04-23T03:28:00;12.00;99.90
6291;DHT22;3178;48.730;8.990;2023-04-23T03:30:27;11.90;99.90
6291;DHT22;3178;48.730;8.990;2023-04-23T03:32:54;11.90;99.90
6291;DHT22;3178;48.730;8.990;2023-04-23T03:35:21;11.90;99.90
6291;DHT22;3178;48.730;8.990;2023-04-23T03:37:47;11.80;99.90
6291;DHT22;3178;48.730;8.990;2023-04-23T03:40:13;11.80;99.90
6291;DHT22;3178;48.730;8.990;2023-04-23T03:42:39;11.80;99.90
6291;DHT22;3178;48.730;8.990;2023-04-23T03:45:05;11.80;99.90
6291;DHT22;3178;48.730;8.990;2023-04-23T03:47:31;11.80;99.90
6291;DHT22;3178;48.730;8.990;2023-04-23T03:49:56;11.80;99.90
6291;DHT22;3178;48.730;8.990;2023-04-23T03:52:22;11.80;99.90
6291;DHT22;3178;48.730;8.990;2023-04-23T03:54:47;11.80;99.90
6291;DHT22;3178;48.730;8.990;2023-04-23T03:57:13;11.80;99.90
6291;DHT22;3178;48.730;8.990;2023-04-23T03:59:38;11.70;99.90
6291;DHT22;3178;48.730;8.990;2023-04-23T04:02:04;11.60;99.90
6291;DHT22;3178;48.730;8.990;2023-04-23T04:04:30;11.60;99.90
6291;DHT22;3178;48.730;8.990;2023-04-23T04:06:57;11.60;99.90
6291;DHT22;3178;48.730;8.990;2023-04-23T04:09:22;11.60;99.90
6291;DHT22;3178;48.730;8.990;2023-04-23T04:11:48;11.50;99.90
6291;DHT22;3178;48.730;8.990;2023-04-23T04:14:13;11.50;99.90
6291;DHT22;3178;48.730;8.990;2023-04-23T04:16:39;11.50;99.90
6291;DHT22;3178;48.730;8.990;2023-04-23T04:19:06;11.50;99.90
6291;DHT22;3178;48.730;8.990;2023-04-23T04:21:32;11.40;99.90
6291;DHT22;3178;48.730;8.990;2023-04-23T04:23:58;11.40;99.90
6291;DHT22;3178;48.730;8.990;2023-04-23T04:26:26;11.40;99.90
6291;DHT22;3178;48.730;8.990;2023-04-23T04:28:52;11.40;99.90
6291;DHT22;3178;48.730;8.990;2023-04-23T04:31:17;11.40;99.90
6291;DHT22;3178;48.730;8.990;2023-04-23T04:33:44;11.40;99.90
6291;DHT22;3178;48.730;8.990;2023-04-23T04:36:11;11.40;99.90
6291;DHT22;3178;48.730;8.990;2023-04-23T04:38:38;11.40;99.90
6291;DHT22;3178;48.730;8.990;2023-04-23T04:41:03;11.40;99.90
6291;DHT22;3178;48.730;8.990;2023-04-23T04:43:29;11.40;99.90
6291;DHT22;3178;48.730;8.990;2023-04-23T04:45:55;11.40;99.90
6291;DHT22;3178;48.730;8.990;2023-04-23T04:48:23;11.40;99.90
6291;DHT22;3178;48.730;8.990;2023-04-23T04:50:49;11.40;99.90
6291;DHT22;3178;48.730;8.990;2023-04-23T04:53:15;11.40;99.90
6291;DHT22;3178;48.730;8.990;2023-04-23T04:55:40;11.40;99.90
6291;DHT22;3178;48.730;8.990;2023-04-23T04:58:06;11.40;99.90
6291;DHT22;3178;48.730;8.990;2023-04-23T05:00:32;11.40;99.90
6291;DHT22;3178;48.730;8.990;2023-04-23T05:02:58;11.40;99.90
6291;DHT22;3178;48.730;8.990;2023-04-23T05:05:24;11.40;99.90
6291;DHT22;3178;48.730;8.990;2023-04-23T05:07:51;11.40;99.90
6291;DHT22;3178;48.730;8.990;2023-04-23T05:10:19;11.40;99.90
6291;DHT22;3178;48.730;8.990;2023-04-23T05:12:45;11.40;99.90
6291;DHT22;3178;48.730;8.990;2023-04-23T05:15:12;11.40;99.90
6291;DHT22;3178;48.730;8.990;2023-04-23T05:17:38;11.50;99.90
6291;DHT22;3178;48.730;8.990;2023-04-23T05:20:05;11.50;99.90
6291;DHT22;3178;48.730;8.990;2023-04-23T05:22:31;11.60;99.90
6291;DHT22;3178;48.730;8.990;2023-04-23T05:24:57;11.60;99.90
6291;DHT22;3178;48.730;8.990;2023-04-23T05:27:22;11.60;99.90
6291;DHT22;3178;48.730;8.990;2023-04-23T05:29:48;11.60;99.90
6291;DHT22;3178;48.730;8.990;2023-04-23T05:32:13;11.60;99.90
6291;DHT22;3178;48.730;8.990;2023-04-23T05:34:39;11.70;99.90
6291;DHT22;3178;48.730;8.990;2023-04-23T05:37:05;11.70;99.90
6291;DHT22;3178;48.730;8.990;2023-04-23T05:39:30;11.80;99.90
6291;DHT22;3178;48.730;8.990;2023-04-23T05:41:56;11.80;99.90
6291;DHT22;3178;48.730;8.990;2023-04-23T05:44:22;11.90;99.90
6291;DHT22;3178;48.730;8.990;2023-04-23T05:46:48;11.90;99.90
6291;DHT22;3178;48.730;8.990;2023-04-23T05:49:13;12.00;99.90
6291;DHT22;3178;48.730;8.990;2023-04-23T05:51:39;12.00;99.90
6291;DHT22;3178;48.730;8.990;2023-04-23T05:54:05;12.00;99.90
6291;DHT22;3178;48.730;8.990;2023-04-23T05:56:30;12.10;99.90
6291;DHT22;3178;48.730;8.990;2023-04-23T05:58:56;12.00;99.90
6291;DHT22;3178;48.730;8.990;2023-04-23T06:01:21;12.10;99.90
6291;DHT22;3178;48.730;8.990;2023-04-23T06:03:48;12.10;99.90
6291;DHT22;3178;48.730;8.990;2023-04-23T06:06:14;12.30;99.90
6291;DHT22;3178;48.730;8.990;2023-04-23T06:08:40;12.30;99.90
6291;DHT22;3178;48.730;8.990;2023-04-23T06:11:05;12.40;99.90
6291;DHT22;3178;48.730;8.990;2023-04-23T06:13:32;12.60;99.90
6291;DHT22;3178;48.730;8.990;2023-04-23T06:15:57;12.80;99.90
6291;DHT22;3178;48.730;8.990;2023-04-23T06:18:23;13.00;99.90
6291;DHT22;3178;48.730;8.990;2023-04-23T06:20:49;13.20;99.90
6291;DHT22;3178;48.730;8.990;2023-04-23T06:23:16;13.30;99.90
6291;DHT22;3178;48.730;8.990;2023-04-23T06:25:42;13.40;99.90
6291;DHT22;3178;48.730;8.990;2023-04-23T06:28:07;13.50;99.90
6291;DHT22;3178;48.730;8.990;2023-04-23T06:30:33;13.50;99.90
6291;DHT22;3178;48.730;8.990;2023-04-23T06:33:00;13.60;99.90
6291;DHT22;3178;48.730;8.990;2023-04-23T06:35:26;13.70;99.90
6291;DHT22;3178;48.730;8.990;2023-04-23T06:37:51;14.00;99.90
6291;DHT22;3178;48.730;8.990;2023-04-23T06:40:17;14.20;99.90
6291;DHT22;3178;48.730;8.990;2023-04-23T06:42:42;14.40;99.90
6291;DHT22;3178;48.730;8.990;2023-04-23T06:45:10;14.70;99.90
6291;DHT22;3178;48.730;8.990;2023-04-23T06:47:35;15.00;99.90
6291;DHT22;3178;48.730;8.990;2023-04-23T06:50:01;15.40;99.90
6291;DHT22;3178;48.730;8.990;2023-04-23T06:52:26;15.60;99.90
6291;DHT22;3178;48.730;8.990;2023-04-23T06:54:52;15.90;99.90
6291;DHT22;3178;48.730;8.990;2023-04-23T06:57:17;16.00;99.90
6291;DHT22;3178;48.730;8.990;2023-04-23T06:59:43;16.00;99.90
6291;DHT22;3178;48.730;8.990;2023-04-23T07:02:08;15.90;99.90
6291;DHT22;3178;48.730;8.990;2023-04-23T07:04:35;15.90;99.90
6291;DHT22;3178;48.730;8.990;2023-04-23T07:07:00;15.90;99.90
6291;DHT22;3178;48.730;8.990;2023-04-23T07:09:28;15.90;99.90
6291;DHT22;3178;48.730;8.990;2023-04-23T07:11:54;16.00;99.90
6291;DHT22;3178;48.730;8.990;2023-04-23T07:14:19;16.20;99.90
6291;DHT22;3178;48.730;8.990;2023-04-23T07:16:45;16.40;99.90
6291;DHT22;3178;48.730;8.990;2023-04-23T07:19:10;16.90;99.90
6291;DHT22;3178;48.730;8.990;2023-04-23T07:21:36;16.80;99.90
6291;DHT22;3178;48.730;8.990;2023-04-23T07:24:01;16.90;99.90
6291;DHT22;3178;48.730;8.990;2023-04-23T07:26:33;17.00;99.90
6291;DHT22;3178;48.730;8.990;2023-04-23T07:28:59;17.30;99.90
6291;DHT22;3178;48.730;8.990;2023-04-23T07:31:26;17.10;99.90
6291;DHT22;3178;48.730;8.990;2023-04-23T07:33:52;17.00;99.90
6291;DHT22;3178;48.730;8.990;2023-04-23T07:36:17;17.00;99.90
6291;DHT22;3178;48.730;8.990;2023-04-23T07:38:43;16.60;99.90
6291;DHT22;3178;48.730;8.990;2023-04-23T07:41:09;16.40;99.90
6291;DHT22;3178;48.730;8.990;2023-04-23T07:43:34;16.20;99.90
6291;DHT22;3178;48.730;8.990;2023-04-23T07:46:00;16.30;99.90
6291;DHT22;3178;48.730;8.990;2023-04-23T07:48:25;16.70;99.90
6291;DHT22;3178;48.730;8.990;2023-04-23T07:50:51;17.10;99.90
6291;DHT22;3178;48.730;8.990;2023-04-23T07:53:17;17.10;99.90
6291;DHT22;3178;48.730;8.990;2023-04-23T07:55:42;17.40;99.90
6291;DHT22;3178;48.730;8.990;2023-04-23T07:58:08;17.60;99.90
6291;DHT22;3178;48.730;8.990;2023-04-23T08:00:34;17.80;99.90
6291;DHT22;3178;48.730;8.990;2023-04-23T08:03:00;17.80;99.90
6291;DHT22;3178;48.730;8.990;2023-04-23T08:05:25;17.80;99.90
6291;DHT22;3178;48.730;8.990;2023-04-23T08:07:51;17.70;99.90
6291;DHT22;3178;48.730;8.990;2023-04-23T08:10:16;17.50;99.90
6291;DHT22;3178;48.730;8.990;2023-04-23T08:12:43;17.10;99.90
6291;DHT22;3178;48.730;8.990;2023-04-23T08:15:09;17.30;99.90
6291;DHT22;3178;48.730;8.990;2023-04-23T08:17:35;17.30;99.90
6291;DHT22;3178;48.730;8.990;2023-04-23T08:20:01;17.40;99.90
6291;DHT22;3178;48.730;8.990;2023-04-23T08:22:28;17.90;99.90
6291;DHT22;3178;48.730;8.990;2023-04-23T08:24:53;18.10;99.90
6291;DHT22;3178;48.730;8.990;2023-04-23T08:27:19;18.30;99.90
6291;DHT22;3178;48.730;8.990;2023-04-23T08:29:44;18.60;99.90
6291;DHT22;3178;48.730;8.990;2023-04-23T08:32:10;18.60;99.90
6291;DHT22;3178;48.730;8.990;2023-04-23T08:34:36;18.40;99.90
6291;DHT22;3178;48.730;8.990;2023-04-23T08:37:01;18.20;99.90
6291;DHT22;3178;48.730;8.990;2023-04-23T08:39:27;17.90;99.90
6291;DHT22;3178;48.730;8.990;2023-04-23T08:41:54;17.60;99.90
6291;DHT22;3178;48.730;8.990;2023-04-23T08:44:24;17.20;99.90
6291;DHT22;3178;48.730;8.990;2023-04-23T08:46:52;17.10;99.90
6291;DHT22;3178;48.730;8.990;2023-04-23T08:49:19;17.20;99.90
6291;DHT22;3178;48.730;8.990;2023-04-23T08:51:49;17.20;99.90
6291;DHT22;3178;48.730;8.990;2023-04-23T08:54:21;17.30;99.90
6291;DHT22;3178;48.730;8.990;2023-04-23T08:56:49;17.30;99.90
6291;DHT22;3178;48.730;8.990;2023-04-23T08:59:16;17.40;99.90
6291;DHT22;3178;48.730;8.990;2023-04-23T09:01:43;17.60;99.90
6291;DHT22;3178;48.730;8.990;2023-04-23T09:04:08;17.70;99.90
6291;DHT22;3178;48.730;8.990;2023-04-23T09:06:35;17.70;99.90
6291;DHT22;3178;48.730;8.990;2023-04-23T09:09:02;17.90;99.90
6291;DHT22;3178;48.730;8.990;2023-04-23T09:11:29;17.80;99.90
6291;DHT22;3178;48.730;8.990;2023-04-23T09:13:55;17.80;99.90
6291;DHT22;3178;48.730;8.990;2023-04-23T09:16:21;17.90;99.90
6291;DHT22;3178;48.730;8.990;2023-04-23T09:18:47;18.10;99.90
6291;DHT22;3178;48.730;8.990;2023-04-23T09:21:15;18.10;99.90
6291;DHT22;3178;48.730;8.990;2023-04-23T09:23:42;18.00;99.90
6291;DHT22;3178;48.730;8.990;2023-04-23T09:26:07;18.10;99.90
6291;DHT22;3178;48.730;8.990;2023-04-23T09:28:36;18.40;99.90
6291;DHT22;3178;48.730;8.990;2023-04-23T09:31:05;18.60;99.90
6291;DHT22;3178;48.730;8.990;2023-04-23T09:33:33;18.70;99.90
6291;DHT22;3178;48.730;8.990;2023-04-23T09:36:25;19.00;99.90
6291;DHT22;3178;48.730;8.990;2023-04-23T09:38:55;19.00;99.90
6291;DHT22;3178;48.730;8.990;2023-04-23T09:41:25;19.00;99.90
6291;DHT22;3178;48.730;8.990;2023-04-23T09:43:56;18.80;99.90
6291;DHT22;3178;48.730;8.990;2023-04-23T09:46:42;18.50;99.90
6291;DHT22;3178;48.730;8.990;2023-04-23T09:49:08;18.60;99.90
6291;DHT22;3178;48.730;8.990;2023-04-23T09:51:41;18.50;99.90
6291;DHT22;3178;48.730;8.990;2023-04-23T09:56:36;18.50;99.90
6291;DHT22;3178;48.730;8.990;2023-04-23T09:59:03;18.70;99.90
6291;DHT22;3178;48.730;8.990;2023-04-23T10:01:44;18.90;99.90
6291;DHT22;3178;48.730;8.990;2023-04-23T10:04:11;18.90;99.90
6291;DHT22;3178;48.730;8.990;2023-04-23T10:06:37;18.80;99.90
6291;DHT22;3178;48.730;8.990;2023-04-23T10:09:02;18.70;99.90
6291;DHT22;3178;48.730;8.990;2023-04-23T10:11:28;18.30;99.90
6291;DHT22;3178;48.730;8.990;2023-04-23T10:13:54;18.20;99.90
6291;DHT22;3178;48.730;8.990;2023-04-23T10:16:21;18.20;99.90
6291;DHT22;3178;48.730;8.990;2023-04-23T10:18:48;18.30;99.90
6291;DHT22;3178;48.730;8.990;2023-04-23T10:21:15;18.00;99.90
6291;DHT22;3178;48.730;8.990;2023-04-23T10:23:43;17.90;99.90
6291;DHT22;3178;48.730;8.990;2023-04-23T10:26:13;18.00;99.90
6291;DHT22;3178;48.730;8.990;2023-04-23T10:28:40;17.90;99.90
6291;DHT22;3178;48.730;8.990;2023-04-23T10:31:07;18.00;99.90
6291;DHT22;3178;48.730;8.990;2023-04-23T10:33:34;17.80;99.90
6291;DHT22;3178;48.730;8.990;2023-04-23T10:36:00;17.80;99.90
6291;DHT22;3178;48.730;8.990;2023-04-23T10:38:26;17.80;99.90
6291;DHT22;3178;48.730;8.990;2023-04-23T10:40:54;17.60;99.90
6291;DHT22;3178;48.730;8.990;2023-04-23T10:43:21;17.50;99.90
6291;DHT22;3178;48.730;8.990;2023-04-23T10:45:48;17.70;99.90
6291;DHT22;3178;48.730;8.990;2023-04-23T10:48:14;17.80;99.90
6291;DHT22;3178;48.730;8.990;2023-04-23T10:50:39;17.80;99.90
6291;DHT22;3178;48.730;8.990;2023-04-23T10:53:17;18.10;99.90
6291;DHT22;3178;48.730;8.990;2023-04-23T10:55:43;18.30;99.90
6291;DHT22;3178;48.730;8.990;2023-04-23T10:58:08;18.40;99.90
6291;DHT22;3178;48.730;8.990;2023-04-23T11:03:37;18.40;99.90
6291;DHT22;3178;48.730;8.990;2023-04-23T11:06:07;18.60;99.90
6291;DHT22;3178;48.730;8.990;2023-04-23T11:08:36;18.80;99.90
6291;DHT22;3178;48.730;8.990;2023-04-23T11:11:06;18.80;99.90
6291;DHT22;3178;48.730;8.990;2023-04-23T11:13:32;18.80;99.90
6291;DHT22;3178;48.730;8.990;2023-04-23T11:19:00;18.30;99.90
6291;DHT22;3178;48.730;8.990;2023-04-23T11:24:35;17.70;99.90
6291;DHT22;3178;48.730;8.990;2023-04-23T11:27:05;17.70;99.90
6291;DHT22;3178;48.730;8.990;2023-04-23T11:29:31;18.00;99.90
6291;DHT22;3178;48.730;8.990;2023-04-23T11:31:57;18.10;99.90
6291;DHT22;3178;48.730;8.990;2023-04-23T11:34:23;18.20;99.90
6291;DHT22;3178;48.730;8.990;2023-04-23T11:36:52;18.30;99.90
6291;DHT22;3178;48.730;8.990;2023-04-23T11:39:19;18.50;99.90
6291;DHT22;3178;48.730;8.990;2023-04-23T11:41:45;18.50;99.90
6291;DHT22;3178;48.730;8.990;2023-04-23T11:44:14;18.60;99.90
6291;DHT22;3178;48.730;8.990;2023-04-23T11:46:40;18.50;99.90
6291;DHT22;3178;48.730;8.990;2023-04-23T11:49:06;18.50;99.90
6291;DHT22;3178;48.730;8.990;2023-04-23T11:51:34;18.60;99.90
6291;DHT22;3178;48.730;8.990;2023-04-23T11:54:04;18.80;99.90
6291;DHT22;3178;48.730;8.990;2023-04-23T11:56:32;18.90;99.90
6291;DHT22;3178;48.730;8.990;2023-04-23T11:59:00;19.00;99.90
6291;DHT22;3178;48.730;8.990;2023-04-23T12:01:39;19.00;99.90
6291;DHT22;3178;48.730;8.990;2023-04-23T12:04:17;18.90;99.90
6291;DHT22;3178;48.730;8.990;2023-04-23T12:06:44;18.80;99.90
6291;DHT22;3178;48.730;8.990;2023-04-23T12:09:11;18.90;99.90
6291;DHT22;3178;48.730;8.990;2023-04-23T12:11:37;19.10;99.90
6291;DHT22;3178;48.730;8.990;2023-04-23T12:14:03;19.20;99.90
6291;DHT22;3178;48.730;8.990;2023-04-23T12:16:43;19.30;99.90
6291;DHT22;3178;48.730;8.990;2023-04-23T12:19:11;19.60;99.90
6291;DHT22;3178;48.730;8.990;2023-04-23T12:21:51;19.70;99.90
6291;DHT22;3178;48.730;8.990;2023-04-23T12:24:21;19.60;99.90
6291;DHT22;3178;48.730;8.990;2023-04-23T12:26:55;19.40;99.90
6291;DHT22;3178;48.730;8.990;2023-04-23T12:29:22;19.20;99.90
6291;DHT22;3178;48.730;8.990;2023-04-23T12:31:49;19.10;99.90
6291;DHT22;3178;48.730;8.990;2023-04-23T12:34:16;19.00;99.90
6291;DHT22;3178;48.730;8.990;2023-04-23T12:36:48;19.30;99.90
6291;DHT22;3178;48.730;8.990;2023-04-23T12:39:27;19.10;99.30
6291;DHT22;3178;48.730;8.990;2023-04-23T12:42:04;19.10;99.90
6291;DHT22;3178;48.730;8.990;2023-04-23T12:44:32;19.10;99.90
6291;DHT22;3178;48.730;8.990;2023-04-23T12:47:00;19.20;99.90
6291;DHT22;3178;48.730;8.990;2023-04-23T12:49:30;19.10;99.90
6291;DHT22;3178;48.730;8.990;2023-04-23T12:51:56;19.10;99.30
6291;DHT22;3178;48.730;8.990;2023-04-23T12:54:26;19.30;99.80
6291;DHT22;3178;48.730;8.990;2023-04-23T12:56:52;19.30;99.30
6291;DHT22;3178;48.730;8.990;2023-04-23T12:59:18;19.40;99.90
6291;DHT22;3178;48.730;8.990;2023-04-23T13:01:43;19.80;99.90
6291;DHT22;3178;48.730;8.990;2023-04-23T13:04:09;19.80;99.20
6291;DHT22;3178;48.730;8.990;2023-04-23T13:06:34;19.90;99.90
6291;DHT22;3178;48.730;8.990;2023-04-23T13:09:00;19.80;98.20
6291;DHT22;3178;48.730;8.990;2023-04-23T13:11:30;20.10;98.50
6291;DHT22;3178;48.730;8.990;2023-04-23T13:13:56;20.00;99.90
6291;DHT22;3178;48.730;8.990;2023-04-23T13:16:22;20.20;98.80
6291;DHT22;3178;48.730;8.990;2023-04-23T13:18:47;20.20;98.10
6291;DHT22;3178;48.730;8.990;2023-04-23T13:21:16;20.20;99.90
6291;DHT22;3178;48.730;8.990;2023-04-23T13:23:41;20.30;98.90
6291;DHT22;3178;48.730;8.990;2023-04-23T13:26:07;20.40;97.80
6291;DHT22;3178;48.730;8.990;2023-04-23T13:28:33;20.30;98.30
6291;DHT22;3178;48.730;8.990;2023-04-23T13:30:59;20.20;98.50
6291;DHT22;3178;48.730;8.990;2023-04-23T13:33:25;20.20;97.10
6291;DHT22;3178;48.730;8.990;2023-04-23T13:35:51;19.90;96.10
6291;DHT22;3178;48.730;8.990;2023-04-23T13:38:17;19.80;97.30
6291;DHT22;3178;48.730;8.990;2023-04-23T13:40:42;19.90;98.20
6291;DHT22;3178;48.730;8.990;2023-04-23T13:43:08;19.80;97.80
6291;DHT22;3178;48.730;8.990;2023-04-23T13:45:33;19.90;99.10
6291;DHT22;3178;48.730;8.990;2023-04-23T13:47:59;20.20;98.70
6291;DHT22;3178;48.730;8.990;2023-04-23T13:50:27;20.30;97.60
6291;DHT22;3178;48.730;8.990;2023-04-23T13:52:52;20.30;96.30
6291;DHT22;3178;48.730;8.990;2023-04-23T13:55:18;20.30;98.40
6291;DHT22;3178;48.730;8.990;2023-04-23T13:57:43;20.50;94.10
6291;DHT22;3178;48.730;8.990;2023-04-23T14:00:09;20.70;93.80
6291;DHT22;3178;48.730;8.990;2023-04-23T14:02:37;20.60;92.70
6291;DHT22;3178;48.730;8.990;2023-04-23T14:05:03;20.40;91.80
6291;DHT22;3178;48.730;8.990;2023-04-23T14:07:31;20.40;91.50
6291;DHT22;3178;48.730;8.990;2023-04-23T14:09:56;20.40;90.30
6291;DHT22;3178;48.730;8.990;2023-04-23T14:12:22;20.40;91.30
6291;DHT22;3178;48.730;8.990;2023-04-23T14:14:49;20.50;90.80
6291;DHT22;3178;48.730;8.990;2023-04-23T14:17:14;20.30;91.20
6291;DHT22;3178;48.730;8.990;2023-04-23T14:19:40;20.50;90.90
6291;DHT22;3178;48.730;8.990;2023-04-23T14:22:06;20.40;91.00
6291;DHT22;3178;48.730;8.990;2023-04-23T14:24:34;20.60;89.60
6291;DHT22;3178;48.730;8.990;2023-04-23T14:27:03;20.50;89.60
6291;DHT22;3178;48.730;8.990;2023-04-23T14:29:50;20.50;91.00
6291;DHT22;3178;48.730;8.990;2023-04-23T14:32:16;20.60;91.70
6291;DHT22;3178;48.730;8.990;2023-04-23T14:34:42;20.50;90.50
6291;DHT22;3178;48.730;8.990;2023-04-23T14:37:08;20.50;90.00
6291;DHT22;3178;48.730;8.990;2023-04-23T14:39:35;20.40;89.90
6291;DHT22;3178;48.730;8.990;2023-04-23T14:42:01;20.50;92.30
6291;DHT22;3178;48.730;8.990;2023-04-23T14:44:27;20.30;91.20
6291;DHT22;3178;48.730;8.990;2023-04-23T14:46:53;20.30;90.40
6291;DHT22;3178;48.730;8.990;2023-04-23T14:49:18;20.20;90.10
6291;DHT22;3178;48.730;8.990;2023-04-23T14:51:47;20.00;90.80
6291;DHT22;3178;48.730;8.990;2023-04-23T14:54:15;19.80;91.20
6291;DHT22;3178;48.730;8.990;2023-04-23T14:56:41;19.90;91.60
6291;DHT22;3178;48.730;8.990;2023-04-23T14:59:07;19.80;90.80
6291;DHT22;3178;48.730;8.990;2023-04-23T15:01:33;19.80;90.30
6291;DHT22;3178;48.730;8.990;2023-04-23T15:03:59;19.70;90.50
6291;DHT22;3178;48.730;8.990;2023-04-23T15:06:24;19.50;91.10
6291;DHT22;3178;48.730;8.990;2023-04-23T15:08:50;19.40;90.90
6291;DHT22;3178;48.730;8.990;2023-04-23T15:11:16;19.40;91.10
6291;DHT22;3178;48.730;8.990;2023-04-23T15:13:55;19.40;91.20
6291;DHT22;3178;48.730;8.990;2023-04-23T15:16:29;19.20;91.20
6291;DHT22;3178;48.730;8.990;2023-04-23T15:18:58;19.20;91.70
6291;DHT22;3178;48.730;8.990;2023-04-23T15:21:24;19.10;92.40
6291;DHT22;3178;48.730;8.990;2023-04-23T15:23:51;19.10;91.80
6291;DHT22;3178;48.730;8.990;2023-04-23T15:26:17;19.10;92.50
6291;DHT22;3178;48.730;8.990;2023-04-23T15:28:42;18.90;92.20
6291;DHT22;3178;48.730;8.990;2023-04-23T15:31:08;18.80;93.30
6291;DHT22;3178;48.730;8.990;2023-04-23T15:33:34;18.60;96.70
6291;DHT22;3178;48.730;8.990;2023-04-23T15:35:59;18.10;98.80
6291;DHT22;3178;48.730;8.990;2023-04-23T15:38:25;17.80;99.90
6291;DHT22;3178;48.730;8.990;2023-04-23T15:40:50;17.50;99.90
6291;DHT22;3178;48.730;8.990;2023-04-23T15:43:16;17.20;99.90
6291;DHT22;3178;48.730;8.990;2023-04-23T15:45:42;17.00;99.90
6291;DHT22;3178;48.730;8.990;2023-04-23T15:48:12;16.90;99.90
6291;DHT22;3178;48.730;8.990;2023-04-23T15:50:37;16.70;99.90
6291;DHT22;3178;48.730;8.990;2023-04-23T15:53:03;16.70;99.90
6291;DHT22;3178;48.730;8.990;2023-04-23T15:55:28;16.70;99.90
6291;DHT22;3178;48.730;8.990;2023-04-23T15:57:54;16.60;99.90
6291;DHT22;3178;48.730;8.990;2023-04-23T16:00:20;16.60;99.90
6291;DHT22;3178;48.730;8.990;2023-04-23T16:02:46;16.60;99.90
6291;DHT22;3178;48.730;8.990;2023-04-23T16:05:12;16.50;99.90
6291;DHT22;3178;48.730;8.990;2023-04-23T16:07:38;16.50;99.90
6291;DHT22;3178;48.730;8.990;2023-04-23T16:10:05;16.50;99.90